Time;durP1;ratioP1;P1;durP2;ratioP2;P2;SDS_P1;SDS_P2;PMS_P1;PMS_P2;Temp;Humidity;BMP_temperature;BMP_pressure;BME280_temperature;BME280_humidity;BME280_pressure;Samples;Min_cycle;Max_cycle;Signal;HPM_P1;HPM_P2
2022/07/05 00:02:06;;;;;;;21.30;9.05;;;;;;;;;;5034132;28;20041;-68
2022/07/05 00:05:11;;;;;;;22.63;8.98;;;;;;;;;;5033763;28;20059;-67
2022/07/05 00:08:15;;;;;;;26.35;6.78;;;;;;;;;;5033901;28;20056;-67
2022/07/05 00:11:20;;;;;;;17.33;6.68;;;;;;;;;;5033876;28;20053;-68
2022/07/05 00:14:24;;;;;;;16.83;6.70;;;;;;;;;;5033634;28;20053;-67
2022/07/05 00:17:28;;;;;;;26.33;7.82;;;;;;;;;;5033953;28;20042;-68
2022/07/05 00:20:33;;;;;;;16.60;5.68;;;;;;;;;;5033713;28;20045;-67
2022/07/05 00:23:37;;;;;;;10.63;6.03;;;;;;;;;;5033685;28;20068;-67
2022/07/05 00:26:41;;;;;;;18.75;6.90;;;;;;;;;;5033602;28;20051;-67
2022/07/05 00:29:46;;;;;;;21.27;6.22;;;;;;;;;;5033575;28;20083;-67
2022/07/05 00:32:49;;;;;;;20.83;7.05;;;;;;;;;;5033291;28;20580;-67
2022/07/05 00:35:54;;;;;;;18.15;6.57;;;;;;;;;;5033496;28;20041;-67
2022/07/05 00:38:58;;;;;;;22.65;11.77;;;;;;;;;;5033468;28;20055;-67
2022/07/05 00:42:03;;;;;;;28.75;15.40;;;;;;;;;;5033328;28;20052;-67
2022/07/05 00:45:07;;;;;;;32.95;15.70;;;;;;;;;;5020687;28;20113;-68
2022/07/05 00:48:11;;;;;;;31.27;17.27;;;;;;;;;;5020956;28;20045;-68
2022/07/05 00:51:16;;;;;;;33.88;17.95;;;;;;;;;;5021003;28;20056;-68
2022/07/05 00:54:20;;;;;;;37.58;17.30;;;;;;;;;;5032847;28;20053;-67
2022/07/05 00:57:24;;;;;;;37.42;16.50;;;;;;;;;;5033329;28;20049;-68
2022/07/05 01:00:28;;;;;;;29.70;14.75;;;;;;;;;;5032842;28;20401;-68
2022/07/05 01:03:33;;;;;;;27.83;14.65;;;;;;;;;;5032975;28;20045;-67
2022/07/05 01:06:37;;;;;;;31.88;13.82;;;;;;;;;;5033049;28;20048;-67
2022/07/05 01:09:42;;;;;;;28.67;12.65;;;;;;;;;;5020574;28;20420;-68
2022/07/05 01:12:46;;;;;;;26.38;11.85;;;;;;;;;;5020136;28;20044;-67
2022/07/05 01:15:50;;;;;;;27.77;12.48;;;;;;;;;;5032517;28;20061;-68
2022/07/05 01:18:55;;;;;;;24.73;11.50;;;;;;;;;;5032826;28;20044;-67
2022/07/05 01:22:03;;;;;;;21.58;11.48;;;;;;;;;;5032535;28;20052;-68
2022/07/05 01:25:07;;;;;;;19.50;11.82;;;;;;;;;;5020479;28;20386;-67
2022/07/05 01:28:12;;;;;;;26.77;11.43;;;;;;;;;;5032517;28;20527;-67
2022/07/05 01:31:16;;;;;;;27.27;11.93;;;;;;;;;;5032071;28;20048;-68
2022/07/05 01:34:20;;;;;;;26.45;11.40;;;;;;;;;;5020264;28;20516;-67
2022/07/05 01:37:24;;;;;;;28.17;11.70;;;;;;;;;;5032378;28;20036;-67
2022/07/05 01:40:29;;;;;;;25.00;11.70;;;;;;;;;;5032057;28;20060;-67
2022/07/05 01:43:33;;;;;;;24.15;11.02;;;;;;;;;;5032403;28;20040;-67
2022/07/05 01:46:39;;;;;;;25.27;10.55;;;;;;;;;;5031994;28;20045;-67
2022/07/05 01:49:44;;;;;;;28.70;10.18;;;;;;;;;;5031943;28;20058;-67
2022/07/05 01:52:49;;;;;;;18.05;10.40;;;;;;;;;;5031828;28;20040;-67
2022/07/05 01:55:56;;;;;;;20.08;8.77;;;;;;;;;;5031761;28;20520;-67
2022/07/05 01:59:01;;;;;;;18.90;9.30;;;;;;;;;;5019904;28;20040;-67
2022/07/05 02:02:06;;;;;;;17.98;8.63;;;;;;;;;;5019479;28;20052;-67
2022/07/05 02:05:11;;;;;;;15.30;8.00;;;;;;;;;;5031418;28;20044;-67
2022/07/05 02:08:17;;;;;;;25.45;7.05;;;;;;;;;;5019548;28;20042;-68
2022/07/05 02:11:22;;;;;;;11.88;7.05;;;;;;;;;;5019163;28;20050;-67
2022/07/05 02:14:26;;;;;;;20.38;8.25;;;;;;;;;;5031575;28;20041;-67
2022/07/05 02:17:31;;;;;;;16.38;8.02;;;;;;;;;;5019455;28;20049;-67
2022/07/05 02:20:35;;;;;;;14.80;7.82;;;;;;;;;;5030831;28;20045;-67
2022/07/05 02:23:40;;;;;;;19.80;7.57;;;;;;;;;;5019475;28;20052;-67
2022/07/05 02:26:46;;;;;;;19.17;7.85;;;;;;;;;;5019203;28;20044;-67
2022/07/05 02:29:52;;;;;;;14.05;7.05;;;;;;;;;;5019081;28;20075;-67
2022/07/05 02:33:02;;;;;;;27.55;7.78;;;;;;;;;;5018990;28;20047;-68
2022/07/05 02:36:07;;;;;;;15.77;8.85;;;;;;;;;;5019296;28;20065;-68
2022/07/05 02:39:11;;;;;;;13.18;7.28;;;;;;;;;;5018924;28;20623;-68
2022/07/05 02:42:16;;;;;;;19.15;8.10;;;;;;;;;;5018791;28;20045;-67
2022/07/05 02:45:21;;;;;;;24.77;7.30;;;;;;;;;;5018919;28;20025;-67
2022/07/05 02:48:32;;;;;;;14.10;6.67;;;;;;;;;;5018835;28;20042;-67
2022/07/05 02:51:37;;;;;;;16.80;7.18;;;;;;;;;;5031181;28;20386;-67
2022/07/05 02:54:43;;;;;;;14.02;6.72;;;;;;;;;;5018922;28;20037;-68
2022/07/05 02:57:49;;;;;;;14.25;7.47;;;;;;;;;;5018952;28;20040;-68
2022/07/05 03:00:55;;;;;;;18.98;7.25;;;;;;;;;;5018563;28;20060;-68
2022/07/05 03:04:02;;;;;;;23.05;8.35;;;;;;;;;;5018632;28;20048;-67
2022/07/05 03:07:08;;;;;;;15.05;7.10;;;;;;;;;;5019031;28;20053;-68
2022/07/05 03:10:12;;;;;;;18.48;7.38;;;;;;;;;;5018983;28;20060;-67
2022/07/05 03:13:17;;;;;;;21.83;8.23;;;;;;;;;;5030789;28;20390;-68
2022/07/05 03:16:23;;;;;;;26.30;8.52;;;;;;;;;;5030667;28;20045;-67
2022/07/05 03:19:28;;;;;;;20.20;7.55;;;;;;;;;;5018482;28;20033;-68
2022/07/05 03:22:32;;;;;;;19.00;7.90;;;;;;;;;;5030598;28;20056;-68
2022/07/05 03:25:37;;;;;;;24.77;7.60;;;;;;;;;;5030957;28;20049;-68
2022/07/05 03:28:43;;;;;;;18.67;7.78;;;;;;;;;;5018459;28;20046;-68
2022/07/05 03:31:47;;;;;;;17.35;8.27;;;;;;;;;;5019791;28;20052;-68
2022/07/05 03:34:52;;;;;;;26.02;9.38;;;;;;;;;;5022330;28;20037;-67
2022/07/05 03:37:57;;;;;;;20.55;8.27;;;;;;;;;;5022529;28;20030;-67
2022/07/05 03:41:02;;;;;;;15.80;8.68;;;;;;;;;;5022009;28;20053;-67
2022/07/05 03:44:06;;;;;;;21.02;8.30;;;;;;;;;;5022867;28;20040;-67
2022/07/05 03:47:11;;;;;;;20.08;8.13;;;;;;;;;;5021998;28;20050;-67
2022/07/05 03:50:16;;;;;;;19.50;8.20;;;;;;;;;;5021996;28;20037;-67
2022/07/05 03:53:21;;;;;;;19.40;8.00;;;;;;;;;;5034418;28;20037;-67
2022/07/05 03:56:26;;;;;;;20.23;8.10;;;;;;;;;;5034422;28;20045;-68
2022/07/05 03:59:36;;;;;;;19.77;7.22;;;;;;;;;;5021652;28;20037;-68
2022/07/05 04:02:41;;;;;;;24.23;9.07;;;;;;;;;;5021607;28;20045;-67
2022/07/05 04:05:47;;;;;;;19.90;7.68;;;;;;;;;;5021972;28;20040;-68
2022/07/05 04:08:52;;;;;;;29.83;8.10;;;;;;;;;;5022053;28;20042;-67
2022/07/05 04:11:57;;;;;;;52.33;8.38;;;;;;;;;;5021494;28;20044;-67
2022/07/05 04:15:02;;;;;;;32.30;8.18;;;;;;;;;;5021360;28;20150;-67
2022/07/05 04:18:07;;;;;;;38.13;8.70;;;;;;;;;;5021522;28;20180;-67
2022/07/05 04:21:15;;;;;;;30.88;8.65;;;;;;;;;;5021268;28;20057;-67
2022/07/05 04:24:20;;;;;;;34.55;8.90;;;;;;;;;;5021567;28;20037;-67
2022/07/05 04:27:24;;;;;;;23.92;9.48;;;;;;;;;;5033639;28;20052;-67
2022/07/05 04:30:29;;;;;;;19.05;10.57;;;;;;;;;;5021455;28;20056;-67
2022/07/05 04:33:35;;;;;;;54.80;26.27;;;;;;;;;;5021370;28;20052;-67
2022/07/05 04:36:40;;;;;;;30.75;14.45;;;;;;;;;;5033400;28;20049;-67
2022/07/05 04:39:45;;;;;;;26.20;14.13;;;;;;;;;;5021193;28;20049;-67
2022/07/05 04:42:49;;;;;;;23.58;10.35;;;;;;;;;;5033051;28;20389;-67
2022/07/05 04:45:55;;;;;;;35.53;10.77;;;;;;;;;;5021254;28;20049;-67
2022/07/05 04:48:59;;;;;;;36.08;12.30;;;;;;;;;;5009897;28;20045;-67
2022/07/05 04:52:05;;;;;;;23.80;9.50;;;;;;;;;;5020732;28;20060;-67
2022/07/05 04:55:11;;;;;;;26.23;9.05;;;;;;;;;;5020828;28;20033;-67
2022/07/05 04:58:15;;;;;;;18.98;7.75;;;;;;;;;;5032908;28;20044;-68
2022/07/05 05:01:19;;;;;;;29.40;9.50;;;;;;;;;;5032851;28;20409;-67
2022/07/05 05:04:23;;;;;;;24.10;9.55;;;;;;;;;;5033074;28;20041;-67
2022/07/05 05:07:27;;;;;;;30.58;10.75;;;;;;;;;;5033127;28;20041;-67
2022/07/05 05:10:32;;;;;;;25.05;9.23;;;;;;;;;;5032811;28;20056;-67
2022/07/05 05:13:36;;;;;;;28.15;10.10;;;;;;;;;;5020392;28;20594;-68
2022/07/05 05:16:40;;;;;;;28.83;9.70;;;;;;;;;;4993245;28;20056;-67
2022/07/05 05:19:45;;;;;;;34.70;11.05;;;;;;;;;;4993118;28;20030;-67
2022/07/05 05:22:50;;;;;;;32.67;8.80;;;;;;;;;;4993043;28;20053;-66
2022/07/05 05:25:54;;;;;;;27.92;8.18;;;;;;;;;;4993139;28;20038;-66
2022/07/05 05:28:58;;;;;;;18.00;7.85;;;;;;;;;;4993292;28;20057;-70
2022/07/05 05:32:03;;;;;;;25.23;9.48;;;;;;;;;;4993009;28;20034;-68
2022/07/05 05:35:08;;;;;;;24.85;8.40;;;;;;;;;;4993210;28;20046;-67
2022/07/05 05:38:12;;;;;;;20.05;8.13;;;;;;;;;;4993009;28;20145;-67
2022/07/05 05:41:16;;;;;;;21.30;8.00;;;;;;;;;;4992482;28;20057;-67
2022/07/05 05:44:21;;;;;;;26.30;8.07;;;;;;;;;;4992834;28;20042;-67
2022/07/05 05:47:25;;;;;;;13.23;7.30;;;;;;;;;;4992702;28;20034;-67
2022/07/05 05:50:30;;;;;;;14.45;7.65;;;;;;;;;;4992902;28;20038;-67
2022/07/05 05:53:35;;;;;;;19.45;7.85;;;;;;;;;;4992744;28;20054;-66
2022/07/05 05:56:39;;;;;;;20.73;8.15;;;;;;;;;;4992817;28;20038;-66
2022/07/05 05:59:43;;;;;;;21.40;7.88;;;;;;;;;;4992466;28;20057;-66
2022/07/05 06:02:49;;;;;;;17.52;8.57;;;;;;;;;;4992501;28;20047;-66
2022/07/05 06:05:54;;;;;;;20.73;8.77;;;;;;;;;;4992296;28;20042;-66
2022/07/05 06:08:58;;;;;;;21.05;7.50;;;;;;;;;;4992311;28;20034;-66
2022/07/05 06:12:03;;;;;;;24.48;7.80;;;;;;;;;;4992382;28;20049;-67
2022/07/05 06:15:07;;;;;;;20.48;8.48;;;;;;;;;;5008488;28;20408;-66
2022/07/05 06:18:12;;;;;;;25.73;9.00;;;;;;;;;;5031682;28;20060;-66
2022/07/05 06:21:16;;;;;;;27.52;7.68;;;;;;;;;;5031168;28;20042;-67
2022/07/05 06:24:20;;;;;;;25.25;8.15;;;;;;;;;;5031463;28;20034;-67
2022/07/05 06:27:24;;;;;;;32.20;8.80;;;;;;;;;;5031208;28;20048;-66
2022/07/05 06:30:30;;;;;;;37.05;9.25;;;;;;;;;;5031201;28;20044;-66
2022/07/05 06:33:34;;;;;;;30.20;9.40;;;;;;;;;;5031730;28;20050;-66
2022/07/05 06:36:38;;;;;;;17.67;8.35;;;;;;;;;;5019313;28;20042;-66
2022/07/05 06:39:43;;;;;;;27.65;8.93;;;;;;;;;;5031367;28;20038;-66
2022/07/05 06:42:48;;;;;;;26.85;9.15;;;;;;;;;;5018933;28;20053;-66
2022/07/05 06:45:54;;;;;;;30.67;9.38;;;;;;;;;;5019181;28;20040;-66
2022/07/05 06:48:58;;;;;;;39.15;8.13;;;;;;;;;;5031761;28;20041;-65
2022/07/05 06:52:02;;;;;;;36.95;8.57;;;;;;;;;;5030872;28;20389;-65
2022/07/05 06:55:07;;;;;;;20.77;8.27;;;;;;;;;;5031013;28;20041;-65
2022/07/05 06:58:14;;;;;;;26.05;8.48;;;;;;;;;;5031163;28;20045;-66
2022/07/05 07:01:18;;;;;;;23.02;7.43;;;;;;;;;;5030818;28;20529;-65
2022/07/05 07:04:22;;;;;;;27.70;7.95;;;;;;;;;;5030844;28;20038;-66
2022/07/05 07:10:49;;;;;;;20.15;7.10;;;;;;;;;;5037590;28;20401;-66
2022/07/05 07:13:53;;;;;;;28.00;7.88;;;;;;;;;;5037219;28;20038;-65
2022/07/05 07:16:58;;;;;;;24.42;7.20;;;;;;;;;;5037747;28;20038;-65
2022/07/05 07:20:02;;;;;;;23.20;6.75;;;;;;;;;;5037240;28;20041;-66
2022/07/05 07:23:07;;;;;;;16.50;6.82;;;;;;;;;;5037414;28;20041;-66
2022/07/05 07:26:13;;;;;;;15.07;6.32;;;;;;;;;;5037580;28;20037;-66
2022/07/05 07:29:17;;;;;;;21.55;6.78;;;;;;;;;;5037319;28;20054;-67
2022/07/05 07:32:21;;;;;;;14.48;4.93;;;;;;;;;;5037306;28;20045;-68
2022/07/05 07:35:26;;;;;;;14.38;5.97;;;;;;;;;;5037520;28;20037;-65
2022/07/05 07:38:30;;;;;;;21.48;6.13;;;;;;;;;;5037057;28;20045;-67
2022/07/05 07:41:34;;;;;;;19.15;5.43;;;;;;;;;;5037132;28;20053;-67
2022/07/05 07:44:39;;;;;;;15.93;6.88;;;;;;;;;;5036972;28;20496;-66
2022/07/05 07:47:44;;;;;;;13.68;5.45;;;;;;;;;;5037101;28;20049;-66
2022/07/05 07:50:48;;;;;;;23.90;7.20;;;;;;;;;;5036692;28;20033;-66
2022/07/05 07:53:52;;;;;;;37.00;8.35;;;;;;;;;;5038422;28;20044;-66
2022/07/05 07:56:56;;;;;;;18.17;6.65;;;;;;;;;;5037877;28;20037;-66
2022/07/05 08:00:00;;;;;;;105.15;13.40;;;;;;;;;;5037167;28;20499;-65
2022/07/05 08:03:04;;;;;;;24.00;6.63;;;;;;;;;;5037114;28;20064;-67
2022/07/05 08:06:10;;;;;;;12.82;5.90;;;;;;;;;;5037269;28;20034;-66
2022/07/05 08:09:15;;;;;;;23.65;6.50;;;;;;;;;;5036735;28;20033;-66
2022/07/05 08:12:19;;;;;;;16.33;5.65;;;;;;;;;;5037255;28;20049;-66
2022/07/05 08:15:23;;;;;;;37.10;7.70;;;;;;;;;;5036835;28;20058;-67
2022/07/05 08:21:50;;;;;;;15.25;5.72;;;;;;;;;;5033347;28;20056;-67
2022/07/05 08:24:55;;;;;;;13.02;4.60;;;;;;;;;;5033051;28;20509;-66
2022/07/05 08:27:59;;;;;;;12.27;4.50;;;;;;;;;;5033480;28;20046;-66
2022/07/05 08:31:03;;;;;;;23.38;5.13;;;;;;;;;;5033590;28;20041;-66
2022/07/05 08:34:08;;;;;;;20.00;6.15;;;;;;;;;;5021165;28;20048;-65
2022/07/05 08:37:12;;;;;;;19.88;5.45;;;;;;;;;;5033318;28;20581;-66
2022/07/05 08:40:19;;;;;;;18.67;5.72;;;;;;;;;;5033380;28;20403;-66
2022/07/05 08:43:24;;;;;;;17.75;4.85;;;;;;;;;;5033565;28;20049;-66
2022/07/05 08:46:30;;;;;;;20.15;4.35;;;;;;;;;;5033247;28;20044;-66
2022/07/05 08:49:35;;;;;;;17.70;4.50;;;;;;;;;;5032730;28;20033;-66
2022/07/05 08:52:40;;;;;;;11.35;4.22;;;;;;;;;;5033444;28;20481;-66
2022/07/05 08:55:44;;;;;;;15.40;4.07;;;;;;;;;;5033100;28;20045;-66
2022/07/05 08:58:51;;;;;;;22.23;4.22;;;;;;;;;;5034504;28;20038;-65
2022/07/05 09:01:57;;;;;;;11.32;3.70;;;;;;;;;;5036148;28;20042;-66
2022/07/05 09:05:02;;;;;;;10.70;4.00;;;;;;;;;;5034476;28;20033;-66
2022/07/05 09:08:08;;;;;;;14.73;4.70;;;;;;;;;;5032561;28;20041;-66
2022/07/05 09:11:14;;;;;;;15.95;3.70;;;;;;;;;;5020310;28;20049;-66
2022/07/05 09:14:23;;;;;;;10.45;2.80;;;;;;;;;;5032883;28;20049;-66
2022/07/05 09:17:28;;;;;;;16.27;3.97;;;;;;;;;;5032683;28;20056;-66
2022/07/05 09:20:33;;;;;;;18.27;3.38;;;;;;;;;;5032726;28;20052;-66
2022/07/05 09:23:37;;;;;;;9.50;2.42;;;;;;;;;;5032785;28;20065;-66
2022/07/05 09:26:43;;;;;;;9.93;2.15;;;;;;;;;;5032946;28;20469;-66
2022/07/05 09:29:57;;;;;;;7.05;2.40;;;;;;;;;;5031431;28;20374;-66
2022/07/05 09:33:04;;;;;;;8.93;3.58;;;;;;;;;;5032375;28;20045;-66
2022/07/05 09:36:09;;;;;;;9.63;3.60;;;;;;;;;;5032633;28;20038;-66
2022/07/05 09:39:13;;;;;;;7.40;2.90;;;;;;;;;;5032211;28;20382;-66
2022/07/05 09:42:23;;;;;;;7.82;3.55;;;;;;;;;;5032267;28;20046;-66
2022/07/05 09:45:27;;;;;;;5.90;2.80;;;;;;;;;;5032463;28;20481;-66
2022/07/05 09:48:32;;;;;;;6.78;2.60;;;;;;;;;;5032040;28;20037;-66
2022/07/05 09:51:49;;;;;;;5.20;2.90;;;;;;;;;;5031864;28;20510;-66
2022/07/05 09:55:12;;;;;;;6.88;2.65;;;;;;;;;;5032094;28;20046;-66
2022/07/05 09:58:25;;;;;;;11.20;3.10;;;;;;;;;;5032345;28;20038;-66
2022/07/05 10:01:31;;;;;;;15.27;3.20;;;;;;;;;;5031748;28;20053;-66
2022/07/05 10:04:36;;;;;;;8.32;3.17;;;;;;;;;;5032258;28;20037;-66
2022/07/05 10:07:44;;;;;;;18.75;4.03;;;;;;;;;;5031984;28;20133;-67
2022/07/05 10:10:51;;;;;;;12.98;4.13;;;;;;;;;;5031946;28;20037;-66
2022/07/05 10:13:56;;;;;;;13.63;2.97;;;;;;;;;;5031823;28;20045;-65
2022/07/05 10:17:01;;;;;;;14.13;3.08;;;;;;;;;;5031411;28;20058;-66
2022/07/05 10:20:09;;;;;;;10.98;3.10;;;;;;;;;;5019197;28;20037;-65
2022/07/05 10:23:15;;;;;;;17.23;3.50;;;;;;;;;;5031666;28;20062;-66
2022/07/05 10:26:19;;;;;;;19.25;3.35;;;;;;;;;;5031712;28;20037;-66
2022/07/05 10:29:24;;;;;;;9.10;3.15;;;;;;;;;;5031514;28;20041;-65
2022/07/05 10:32:28;;;;;;;9.45;2.97;;;;;;;;;;5031458;28;20033;-66
2022/07/05 10:35:33;;;;;;;17.10;2.83;;;;;;;;;;5031187;28;20393;-67
2022/07/05 10:38:44;;;;;;;10.52;2.67;;;;;;;;;;5031379;28;20473;-66
2022/07/05 10:41:48;;;;;;;14.90;2.65;;;;;;;;;;5030782;28;20158;-65
2022/07/05 10:44:53;;;;;;;10.57;2.70;;;;;;;;;;5031714;28;20116;-66
2022/07/05 10:48:16;;;;;;;15.65;2.88;;;;;;;;;;5029668;28;20043;-66
2022/07/05 10:51:21;;;;;;;14.27;3.20;;;;;;;;;;5030242;28;20686;-67
2022/07/05 10:54:25;;;;;;;12.77;2.17;;;;;;;;;;5030764;28;20394;-66
2022/07/05 10:57:30;;;;;;;9.60;2.70;;;;;;;;;;5030631;28;20041;-67
2022/07/05 11:00:34;;;;;;;20.67;2.80;;;;;;;;;;5030272;28;20359;-67
2022/07/05 11:03:40;;;;;;;10.18;2.45;;;;;;;;;;5031036;28;20052;-67
2022/07/05 11:06:46;;;;;;;5.30;2.35;;;;;;;;;;5031237;28;20049;-67
2022/07/05 11:10:01;;;;;;;8.13;2.33;;;;;;;;;;5030917;28;20045;-67
2022/07/05 11:13:24;;;;;;;8.57;2.60;;;;;;;;;;5030844;28;20037;-67
2022/07/05 11:16:36;;;;;;;8.05;2.17;;;;;;;;;;5033797;28;20053;-67
2022/07/05 11:19:58;;;;;;;12.15;3.03;;;;;;;;;;5033159;28;20037;-67
2022/07/05 11:23:07;;;;;;;7.53;3.53;;;;;;;;;;5030642;28;20512;-67
2022/07/05 11:26:12;;;;;;;9.75;2.40;;;;;;;;;;5030879;28;20034;-67
2022/07/05 11:29:36;;;;;;;11.45;2.72;;;;;;;;;;5031120;28;20030;-67
2022/07/05 11:32:40;;;;;;;7.10;2.35;;;;;;;;;;5030765;28;20042;-67
2022/07/05 11:35:44;;;;;;;5.10;2.10;;;;;;;;;;5030867;28;20057;-67
2022/07/05 11:39:08;;;;;;;6.80;2.50;;;;;;;;;;5030888;28;20037;-67
2022/07/05 11:42:19;;;;;;;8.60;2.15;;;;;;;;;;5030850;28;20049;-67
2022/07/05 11:45:24;;;;;;;9.55;2.67;;;;;;;;;;5030939;28;20398;-67
2022/07/05 11:48:28;;;;;;;9.18;2.63;;;;;;;;;;5018297;28;20158;-67
2022/07/05 11:51:32;;;;;;;4.07;2.03;;;;;;;;;;5030833;28;20033;-67
2022/07/05 11:54:37;;;;;;;8.40;2.55;;;;;;;;;;5034774;28;20037;-67
2022/07/05 11:57:49;;;;;;;11.00;2.70;;;;;;;;;;5034353;28;20033;-67
2022/07/05 12:00:55;;;;;;;9.82;2.25;;;;;;;;;;5034284;28;20050;-67
2022/07/05 12:03:59;;;;;;;11.48;2.97;;;;;;;;;;5034756;28;20382;-67
2022/07/05 12:07:04;;;;;;;13.07;3.38;;;;;;;;;;5022224;28;20045;-67
2022/07/05 12:13:42;;;;;;;14.27;2.50;;;;;;;;;;5033992;28;20038;-67
2022/07/05 12:16:47;;;;;;;4.53;2.25;;;;;;;;;;5034347;28;20057;-67
2022/07/05 12:19:52;;;;;;;9.02;2.35;;;;;;;;;;5033954;28;20045;-67
2022/07/05 12:22:58;;;;;;;10.70;2.70;;;;;;;;;;5033642;28;20045;-67
2022/07/05 12:26:02;;;;;;;8.45;2.60;;;;;;;;;;5033900;28;20030;-67
2022/07/05 12:29:07;;;;;;;11.70;2.25;;;;;;;;;;5034728;28;20041;-67
2022/07/05 12:32:11;;;;;;;8.75;2.45;;;;;;;;;;5033865;28;20045;-67
2022/07/05 12:35:31;;;;;;;8.88;2.25;;;;;;;;;;5033917;28;20037;-67
2022/07/05 12:38:35;;;;;;;10.43;2.37;;;;;;;;;;5033673;28;20037;-66
2022/07/05 12:41:43;;;;;;;15.68;2.45;;;;;;;;;;5033442;28;20041;-67
2022/07/05 12:44:47;;;;;;;9.73;2.30;;;;;;;;;;5033499;28;20037;-66
2022/07/05 12:47:53;;;;;;;14.20;2.30;;;;;;;;;;5033697;28;20053;-65
2022/07/05 12:50:58;;;;;;;15.00;2.28;;;;;;;;;;5033395;28;20048;-66
2022/07/05 13:00:48;;;;;;;13.40;2.17;;;;;;;;;;5033486;28;20041;-66
2022/07/05 13:03:59;;;;;;;8.77;2.00;;;;;;;;;;5033161;28;20058;-65
2022/07/05 13:07:04;;;;;;;9.02;1.85;;;;;;;;;;5025442;28;20046;-66
2022/07/05 13:10:16;;;;;;;11.55;2.40;;;;;;;;;;5033234;28;20060;-66
2022/07/05 13:13:20;;;;;;;9.52;1.73;;;;;;;;;;5033375;28;20045;-69
2022/07/05 13:16:24;;;;;;;6.13;1.67;;;;;;;;;;5020536;28;20054;-65
2022/07/05 13:19:28;;;;;;;10.43;1.92;;;;;;;;;;5033169;28;20045;-66
2022/07/05 13:22:33;;;;;;;7.90;2.78;;;;;;;;;;5032933;28;20045;-66
2022/07/05 13:25:37;;;;;;;9.35;1.67;;;;;;;;;;5033187;28;20037;-66
2022/07/05 13:28:42;;;;;;;6.50;2.53;;;;;;;;;;5032594;28;20034;-66
2022/07/05 13:31:46;;;;;;;10.75;1.88;;;;;;;;;;5033718;28;20049;-65
2022/07/05 13:34:51;;;;;;;10.70;2.65;;;;;;;;;;5032704;28;20131;-66
2022/07/05 13:37:55;;;;;;;8.25;1.98;;;;;;;;;;5033461;28;20037;-65
2022/07/05 13:41:00;;;;;;;7.57;2.83;;;;;;;;;;5033397;28;20373;-66
2022/07/05 13:44:04;;;;;;;10.38;2.13;;;;;;;;;;5032716;28;20045;-66
2022/07/05 13:47:10;;;;;;;7.72;2.45;;;;;;;;;;5032519;28;20049;-66
2022/07/05 13:50:33;;;;;;;16.88;2.97;;;;;;;;;;5031927;28;20477;-66
2022/07/05 13:53:37;;;;;;;7.35;2.35;;;;;;;;;;5032858;28;20040;-66
2022/07/05 13:56:42;;;;;;;10.88;2.45;;;;;;;;;;5035357;28;20045;-66
2022/07/05 13:59:46;;;;;;;15.00;2.50;;;;;;;;;;5036346;28;20044;-66
2022/07/05 14:02:50;;;;;;;11.00;2.08;;;;;;;;;;5037409;28;20551;-66
2022/07/05 14:05:55;;;;;;;16.60;2.92;;;;;;;;;;5036708;28;20041;-66
2022/07/05 14:09:00;;;;;;;20.23;2.75;;;;;;;;;;5034140;28;20053;-67
2022/07/05 14:12:05;;;;;;;11.82;1.85;;;;;;;;;;5034629;28;20041;-67
2022/07/05 14:15:09;;;;;;;11.15;2.08;;;;;;;;;;5031729;28;20053;-67
2022/07/05 14:18:19;;;;;;;14.45;2.30;;;;;;;;;;5031933;28;20041;-67
2022/07/05 14:21:23;;;;;;;9.55;2.35;;;;;;;;;;5031671;28;20397;-66
2022/07/05 14:24:28;;;;;;;9.45;2.25;;;;;;;;;;5031465;28;20046;-66
2022/07/05 14:27:32;;;;;;;12.20;2.17;;;;;;;;;;5031816;28;20049;-66
2022/07/05 14:30:38;;;;;;;8.20;1.88;;;;;;;;;;5031596;28;20053;-67
2022/07/05 14:33:42;;;;;;;10.40;2.13;;;;;;;;;;5031254;28;20667;-67
2022/07/05 14:36:46;;;;;;;8.52;1.95;;;;;;;;;;5032905;28;20038;-67
2022/07/05 14:39:51;;;;;;;15.80;2.15;;;;;;;;;;5036402;28;20038;-66
2022/07/05 14:42:55;;;;;;;9.50;2.05;;;;;;;;;;5031847;28;20045;-66
2022/07/05 14:45:59;;;;;;;11.93;2.13;;;;;;;;;;5031473;28;20378;-67
2022/07/05 14:49:04;;;;;;;11.00;3.05;;;;;;;;;;5031457;28;20497;-66
2022/07/05 14:52:08;;;;;;;18.13;2.20;;;;;;;;;;5031540;28;20532;-66
2022/07/05 14:55:13;;;;;;;19.77;3.22;;;;;;;;;;5031390;28;20037;-67
2022/07/05 14:58:17;;;;;;;17.67;2.97;;;;;;;;;;5031574;28;20044;-66
2022/07/05 15:01:22;;;;;;;24.08;2.63;;;;;;;;;;5031051;28;20057;-66
2022/07/05 15:04:26;;;;;;;12.02;2.20;;;;;;;;;;5031360;28;20050;-66
2022/07/05 15:07:31;;;;;;;13.55;2.00;;;;;;;;;;5031206;28;20037;-66
2022/07/05 15:10:35;;;;;;;16.00;2.30;;;;;;;;;;5031015;28;20041;-66
2022/07/05 15:13:40;;;;;;;12.27;2.50;;;;;;;;;;5031293;28;20041;-66
2022/07/05 15:16:44;;;;;;;11.52;2.30;;;;;;;;;;5031544;28;20068;-66
2022/07/05 15:19:48;;;;;;;16.23;2.30;;;;;;;;;;5031126;28;20041;-65
2022/07/05 15:22:53;;;;;;;11.13;2.28;;;;;;;;;;5031054;28;20050;-66
2022/07/05 15:25:57;;;;;;;22.73;2.92;;;;;;;;;;5031392;28;20488;-66
2022/07/05 15:29:07;;;;;;;16.63;2.25;;;;;;;;;;5035039;28;20045;-65
2022/07/05 15:32:12;;;;;;;25.30;3.05;;;;;;;;;;5035034;28;20044;-65
2022/07/05 15:35:17;;;;;;;18.70;2.47;;;;;;;;;;5035018;28;20042;-66
2022/07/05 15:38:21;;;;;;;14.88;2.28;;;;;;;;;;5035000;28;20469;-65
2022/07/05 15:41:26;;;;;;;17.73;2.35;;;;;;;;;;5034424;28;20048;-66
2022/07/05 15:44:30;;;;;;;16.20;3.00;;;;;;;;;;5034703;28;20041;-65
2022/07/05 15:47:36;;;;;;;19.08;2.42;;;;;;;;;;5034724;28;20049;-66
2022/07/05 15:50:41;;;;;;;14.70;3.03;;;;;;;;;;5035549;28;20050;-65
2022/07/05 15:53:45;;;;;;;15.07;2.03;;;;;;;;;;5039538;28;20044;-65
2022/07/05 15:56:50;;;;;;;13.52;2.50;;;;;;;;;;5037137;28;20389;-66
2022/07/05 15:59:54;;;;;;;14.30;2.25;;;;;;;;;;5034382;28;20037;-64
2022/07/05 16:02:59;;;;;;;11.10;2.13;;;;;;;;;;5034474;28;20521;-65
2022/07/05 16:06:03;;;;;;;9.93;1.83;;;;;;;;;;5034701;28;20041;-65
2022/07/05 16:09:07;;;;;;;16.73;2.35;;;;;;;;;;5033829;28;20041;-66
2022/07/05 16:12:12;;;;;;;19.02;2.70;;;;;;;;;;5034063;28;20047;-66
2022/07/05 16:16:10;;;;;;;13.60;2.40;;;;;;;;;;5033818;28;20533;-66
2022/07/05 16:18:42;;;;;;;7.95;2.75;;;;;;;;;;5033974;28;20041;-66
2022/07/05 16:21:49;;;;;;;12.88;2.35;;;;;;;;;;5033567;28;20041;-66
2022/07/05 16:24:53;;;;;;;15.43;2.22;;;;;;;;;;5033830;28;20049;-67
2022/07/05 16:27:57;;;;;;;14.88;2.38;;;;;;;;;;5033638;28;20056;-68
2022/07/05 16:31:02;;;;;;;14.00;2.10;;;;;;;;;;5033518;28;20052;-67
2022/07/05 16:34:07;;;;;;;10.57;2.03;;;;;;;;;;5033633;28;20041;-67
2022/07/05 16:37:11;;;;;;;11.25;2.22;;;;;;;;;;5033018;28;20053;-67
2022/07/05 16:40:15;;;;;;;9.70;2.35;;;;;;;;;;5033255;28;20041;-67
2022/07/05 16:43:19;;;;;;;18.67;2.80;;;;;;;;;;5033339;28;20045;-67
2022/07/05 16:46:26;;;;;;;10.88;3.00;;;;;;;;;;5033965;28;20044;-67
2022/07/05 16:49:30;;;;;;;17.92;3.08;;;;;;;;;;5036561;28;20045;-67
2022/07/05 16:52:35;;;;;;;14.13;2.38;;;;;;;;;;5037240;28;20052;-66
2022/07/05 16:55:39;;;;;;;14.30;2.75;;;;;;;;;;5037169;28;20597;-66
2022/07/05 16:58:45;;;;;;;15.10;2.65;;;;;;;;;;5033560;28;20101;-66
2022/07/05 17:01:50;;;;;;;10.77;2.45;;;;;;;;;;5033109;28;20042;-67
2022/07/05 17:04:55;;;;;;;17.10;2.20;;;;;;;;;;5032707;28;20041;-67
2022/07/05 17:07:59;;;;;;;29.15;3.08;;;;;;;;;;5032771;28;20036;-67
2022/07/05 17:11:04;;;;;;;14.30;2.92;;;;;;;;;;5032452;28;20056;-67
2022/07/05 17:14:08;;;;;;;14.63;2.80;;;;;;;;;;5032440;28;20037;-67
2022/07/05 17:17:12;;;;;;;17.90;3.35;;;;;;;;;;5032356;28;20049;-67
2022/07/05 17:20:17;;;;;;;11.50;2.00;;;;;;;;;;5033445;28;20388;-67
2022/07/05 17:23:21;;;;;;;30.50;5.43;;;;;;;;;;5032553;28;20056;-67
2022/07/05 17:26:28;;;;;;;15.60;3.40;;;;;;;;;;5032436;28;20044;-67
2022/07/05 17:29:33;;;;;;;11.88;2.50;;;;;;;;;;5020090;28;20396;-67
2022/07/05 17:32:37;;;;;;;15.52;3.05;;;;;;;;;;5032308;28;20118;-67
2022/07/05 17:35:41;;;;;;;22.00;3.05;;;;;;;;;;5032615;28;20041;-67
2022/07/05 17:38:47;;;;;;;18.75;2.60;;;;;;;;;;5032377;28;20502;-67
2022/07/05 17:41:51;;;;;;;15.75;2.75;;;;;;;;;;5032185;28;20468;-67
2022/07/05 17:44:55;;;;;;;15.23;3.00;;;;;;;;;;5032368;28;20465;-67
2022/07/05 17:48:00;;;;;;;13.25;2.58;;;;;;;;;;5032250;28;20042;-67
2022/07/05 17:51:04;;;;;;;17.27;2.33;;;;;;;;;;5030551;28;20041;-67
2022/07/05 17:54:08;;;;;;;15.35;2.85;;;;;;;;;;5019782;28;20038;-67
2022/07/05 17:57:13;;;;;;;10.82;2.25;;;;;;;;;;5032127;28;20038;-67
2022/07/05 18:00:17;;;;;;;19.77;3.05;;;;;;;;;;5031908;28;20037;-67
2022/07/05 18:03:22;;;;;;;18.20;3.72;;;;;;;;;;5034919;28;20198;-67
2022/07/05 18:06:26;;;;;;;17.77;3.72;;;;;;;;;;5031994;28;20037;-67
2022/07/05 18:09:30;;;;;;;19.58;2.97;;;;;;;;;;5019572;28;20386;-67
2022/07/05 18:12:34;;;;;;;14.43;3.45;;;;;;;;;;5031751;28;20068;-67
2022/07/05 18:15:39;;;;;;;11.30;2.50;;;;;;;;;;5031757;28;20068;-67
2022/07/05 18:18:45;;;;;;;13.32;4.72;;;;;;;;;;5019915;28;20040;-67
2022/07/05 18:21:50;;;;;;;20.10;3.33;;;;;;;;;;5031571;28;20532;-67
2022/07/05 18:24:54;;;;;;;27.73;3.80;;;;;;;;;;5031976;28;20260;-67
2022/07/05 18:27:58;;;;;;;22.48;3.63;;;;;;;;;;5031492;28;20052;-67
2022/07/05 18:31:03;;;;;;;21.30;2.67;;;;;;;;;;5031707;28;20060;-67
2022/07/05 18:34:07;;;;;;;14.93;2.60;;;;;;;;;;5031697;28;20052;-67